Xiang Tong 9 — 9LU2569 — position and weather

sailwx.info

Track history (hours):
 
Tides and Currents Weather Stations Pressure Air Temp Water Temp Dewpoint Dewpoint Depression Visibility Wind Speed Wind Dir Waves Ship Positions

Xiang Tong 9

Last reported at 2017-Dec-03 07:13 UTC. Time now 2017-Dec-17 23:09 UTC.
Position N 33°59' E 130°02'.
Warning: this ship's position is 14 days out of date.

Length 95 m; draft 5.4 m.

Type: Cargo ship. MMSI: 667001766.

Date/timePositionNaut miles runAvg speedWind from/ knotsBaromVisibWave heightAir tempDewpointWater temp
2017-Dec-03 07:13N 33°59' E 130°02'2 9.3
2017-Dec-03 07:00N 33°60' E 130°04'5 9.5
2017-Dec-03 06:30N 34°01' E 130°10'5 9.3
2017-Dec-03 06:01N 34°01' E 130°15'5 9.1
2017-Dec-03 05:30N 34°02' E 130°21'4 9.0
2017-Dec-03 05:00N 34°02' E 130°26'4 9.0
2017-Dec-03 04:30N 34°03' E 130°31'4 9.0
2017-Dec-03 04:00N 34°04' E 130°37'5 9.2
2017-Dec-03 03:30N 34°03' E 130°42'5 9.7
2017-Dec-03 03:00N 34°02' E 130°48'5 9.4
2017-Dec-03 02:30N 33°60' E 130°53'4 8.2
2017-Dec-03 02:00N 33°56' E 130°53'4 7.6
2017-Dec-03 01:30N 33°58' E 130°57'5 9.1
2017-Dec-03 01:00N 33°58' E 131°03'5 9.3
2017-Dec-03 00:30N 33°55' E 131°07'5 9.1
2017-Dec-03 00:00N 33°52' E 131°12'4 8.8
2017-Dec-02 23:30N 33°51' E 131°17'5 9.6
2017-Dec-02 23:00N 33°50' E 131°22'5 9.6
2017-Dec-02 22:31N 33°49' E 131°28'5 9.7
2017-Dec-02 22:00N 33°48' E 131°34'5 9.9
2017-Dec-02 21:30N 33°47' E 131°39'5 9.1
2017-Dec-02 21:00N 33°45' E 131°44'510.2
2017-Dec-02 20:30N 33°40' E 131°46'710.5
2017-Dec-02 19:52N 33°34' E 131°50'410.1
2017-Dec-02 19:30N 33°31' E 131°52'5 9.9
2017-Dec-02 18:58N 33°26' E 131°55'510.1
2017-Dec-02 18:30N 33°22' E 131°57'350 7.1
2017-Nov-30 17:30N 34°33' E 138°50'3 4.8
2017-Nov-30 16:53N 34°32' E 138°54'2 4.1
2017-Nov-30 16:29N 34°31' E 138°56'2 4.7
2017-Nov-30 16:00N 34°32' E 138°58'5 5.9
2017-Nov-30 15:14N 34°34' E 139°03'3 5.9
2017-Nov-30 14:43N 34°34' E 139°07'2 7.9
2017-Nov-30 14:29N 34°35' E 139°09'5 7.6
2017-Nov-30 13:52N 34°36' E 139°14'11 7.5
2017-Nov-30 12:25N 34°38' E 139°27'37 7.9
2017-Nov-30 07:42N 34°57' E 140°06'  
Track history (hours):
 
Tides and Currents Weather Stations Pressure Air Temp Water Temp Dewpoint Dewpoint Depression Visibility Wind Speed Wind Dir Waves Ship Positions

Xiang Tong 9

Last reported at 2017-Dec-03 07:13 UTC. Time now 2017-Dec-17 23:09 UTC.
Position N 33°59' E 130°02'.
Warning: this ship's position is 14 days out of date.

Length 95 m; draft 5.4 m.

Type: Cargo ship. MMSI: 667001766.

Date/timePositionNaut miles runAvg speedWind from/ knotsBaromVisibWave heightAir tempDewpointWater temp
2017-Dec-03 07:13N 33°59' E 130°02'2 9.3
2017-Dec-03 07:00N 33°60' E 130°04'5 9.5
2017-Dec-03 06:30N 34°01' E 130°10'5 9.3
2017-Dec-03 06:01N 34°01' E 130°15'5 9.1
2017-Dec-03 05:30N 34°02' E 130°21'4 9.0
2017-Dec-03 05:00N 34°02' E 130°26'4 9.0
2017-Dec-03 04:30N 34°03' E 130°31'4 9.0
2017-Dec-03 04:00N 34°04' E 130°37'5 9.2
2017-Dec-03 03:30N 34°03' E 130°42'5 9.7
2017-Dec-03 03:00N 34°02' E 130°48'5 9.4
2017-Dec-03 02:30N 33°60' E 130°53'4 8.2
2017-Dec-03 02:00N 33°56' E 130°53'4 7.6
2017-Dec-03 01:30N 33°58' E 130°57'5 9.1
2017-Dec-03 01:00N 33°58' E 131°03'5 9.3
2017-Dec-03 00:30N 33°55' E 131°07'5 9.1
2017-Dec-03 00:00N 33°52' E 131°12'4 8.8
2017-Dec-02 23:30N 33°51' E 131°17'5 9.6
2017-Dec-02 23:00N 33°50' E 131°22'5 9.6
2017-Dec-02 22:31N 33°49' E 131°28'5 9.7
2017-Dec-02 22:00N 33°48' E 131°34'5 9.9
2017-Dec-02 21:30N 33°47' E 131°39'5 9.1
2017-Dec-02 21:00N 33°45' E 131°44'510.2
2017-Dec-02 20:30N 33°40' E 131°46'710.5
2017-Dec-02 19:52N 33°34' E 131°50'410.1
2017-Dec-02 19:30N 33°31' E 131°52'5 9.9
2017-Dec-02 18:58N 33°26' E 131°55'510.1
2017-Dec-02 18:30N 33°22' E 131°57'350 7.1
2017-Nov-30 17:30N 34°33' E 138°50'3 4.8
2017-Nov-30 16:53N 34°32' E 138°54'2 4.1
2017-Nov-30 16:29N 34°31' E 138°56'2 4.7
2017-Nov-30 16:00N 34°32' E 138°58'5 5.9
2017-Nov-30 15:14N 34°34' E 139°03'3 5.9
2017-Nov-30 14:43N 34°34' E 139°07'2 7.9
2017-Nov-30 14:29N 34°35' E 139°09'5 7.6
2017-Nov-30 13:52N 34°36' E 139°14'11 7.5
2017-Nov-30 12:25N 34°38' E 139°27'37 7.9
2017-Nov-30 07:42N 34°57' E 140°06'  

Dump ship's entire track history